Time;durP1;ratioP1;P1;durP2;ratioP2;P2;SDS_P1;SDS_P2;PMS_P1;PMS_P2;Temp;Humidity;BMP_temperature;BMP_pressure;BME280_temperature;BME280_humidity;BME280_pressure;Samples;Min_cycle;Max_cycle;Signal;HPM_P1;HPM_P2
2022/01/24 00:01:26;;;;;;;15.57;12.02;;;6.60;91.00;;;;;;6164319;23;20017;-79
2022/01/24 00:03:56;;;;;;;15.07;11.13;;;6.60;91.00;;;;;;6189712;23;20349;-79
2022/01/24 00:06:23;;;;;;;14.40;11.32;;;6.60;91.00;;;;;;6140427;23;20470;-79
2022/01/24 00:08:49;;;;;;;16.85;11.55;;;6.60;91.00;;;;;;6163084;23;20128;-80
2022/01/24 00:11:19;;;;;;;15.38;11.35;;;6.50;91.00;;;;;;6163853;23;20384;-79
2022/01/24 00:26:53;;;;;;;19.83;14.05;;;6.50;91.10;;;;;;6168157;23;20075;-78
2022/01/24 00:29:21;;;;;;;17.35;13.07;;;6.60;91.10;;;;;;6140422;23;20020;-79
2022/01/24 00:31:47;;;;;;;18.08;14.02;;;6.50;91.00;;;;;;6163811;23;20440;-78
2022/01/24 00:34:13;;;;;;;17.55;13.27;;;6.50;91.00;;;;;;6190006;23;20009;-79
2022/01/24 00:36:39;;;;;;;20.92;13.75;;;6.50;91.00;;;;;;6138879;23;20444;-81
2022/01/24 00:39:05;;;;;;;18.55;13.27;;;6.50;91.00;;;;;;6164003;23;20041;-79
2022/01/24 00:41:39;;;;;;;16.65;13.27;;;6.50;91.00;;;;;;6163700;23;20367;-79
2022/01/24 00:46:56;;;;;;;17.75;12.98;;;6.50;91.00;;;;;;6167729;23;20097;-79
2022/01/24 00:54:54;;;;;;;18.23;13.15;;;6.50;91.00;;;;;;6189811;23;20021;-79
2022/01/24 00:57:20;;;;;;;17.80;13.82;;;6.50;91.10;;;;;;6164195;23;20456;-79
2022/01/24 00:59:49;;;;;;;18.90;13.48;;;6.50;91.00;;;;;;6163583;23;20028;-79
2022/01/24 01:02:15;;;;;;;21.08;14.38;;;6.50;91.10;;;;;;6189791;23;20017;-78
2022/01/24 01:07:17;;;;;;;22.58;15.65;;;6.40;91.00;;;;;;6140574;23;20112;-79
2022/01/24 01:18:18;;;;;;;22.38;15.70;;;6.40;91.10;;;;;;6142474;23;20360;-79
2022/01/24 01:21:29;;;;;;;22.95;16.48;;;6.40;91.10;;;;;;6190808;23;20017;-83
2022/01/24 01:23:32;;;;;;;20.63;16.05;;;6.40;91.10;;;;;;6150670;23;20027;-78
2022/01/24 01:25:59;;;;;;;20.73;16.02;;;6.40;91.10;;;;;;6191299;23;20048;-79
2022/01/24 01:28:27;;;;;;;23.73;17.05;;;6.40;91.00;;;;;;6166138;23;20039;-79
2022/01/24 01:30:56;;;;;;;22.63;17.85;;;6.40;91.00;;;;;;6165412;23;20467;-79
2022/01/24 01:55:37;;;;;;;26.98;18.95;;;6.40;90.90;;;;;;6141124;23;20525;-79
2022/01/24 01:58:17;;;;;;;28.00;19.55;;;6.40;90.80;;;;;;6164437;23;20028;-79
2022/01/24 02:00:45;;;;;;;28.50;19.88;;;6.40;90.80;;;;;;6165345;23;20160;-79
2022/01/24 02:03:11;;;;;;;26.38;18.55;;;6.40;90.90;;;;;;6140307;23;20111;-79
2022/01/24 02:05:37;;;;;;;26.15;19.92;;;6.40;90.90;;;;;;6191490;23;20016;-80
2022/01/24 02:08:03;;;;;;;30.58;19.55;;;6.40;90.80;;;;;;6164724;23;20013;-78
2022/01/24 02:10:29;;;;;;;28.00;19.38;;;6.40;90.90;;;;;;6140850;23;20023;-79
2022/01/24 02:12:56;;;;;;;28.45;20.80;;;6.40;90.80;;;;;;6140193;23;20452;-78
2022/01/24 02:15:30;;;;;;;26.85;18.50;;;6.40;90.80;;;;;;6166001;23;20017;-79
2022/01/24 02:18:47;;;;;;;26.45;19.55;;;6.40;90.80;;;;;;6167309;23;20071;-78
2022/01/24 02:23:46;;;;;;;24.00;18.02;;;6.40;90.90;;;;;;6165123;23;20451;-79
2022/01/24 02:26:17;;;;;;;27.48;18.98;;;6.30;90.90;;;;;;6143309;23;20302;-79
2022/01/24 02:31:37;;;;;;;25.88;18.42;;;6.30;90.90;;;;;;6167526;23;20032;-79
2022/01/24 02:34:28;;;;;;;27.52;18.30;;;6.30;90.90;;;;;;6143306;23;20140;-80
2022/01/24 02:36:56;;;;;;;25.95;17.60;;;6.30;90.80;;;;;;6164748;23;20071;-83
2022/01/24 02:50:34;;;;;;;25.90;19.13;;;6.40;90.90;;;;;;6164600;23;20025;-79
2022/01/24 02:53:00;;;;;;;23.38;17.40;;;6.30;90.90;;;;;;6142187;23;20440;-80
2022/01/24 02:55:26;;;;;;;23.88;17.15;;;6.30;90.90;;;;;;6188544;23;20061;-79
2022/01/24 02:57:52;;;;;;;22.70;17.65;;;6.30;90.90;;;;;;6163859;23;20021;-78
2022/01/24 03:00:17;;;;;;;22.25;16.90;;;6.30;90.90;;;;;;6138668;23;20104;-79
2022/01/24 03:02:43;;;;;;;24.42;17.10;;;6.30;90.90;;;;;;6163494;23;20017;-79
2022/01/24 03:05:09;;;;;;;21.73;16.67;;;6.30;90.90;;;;;;6163460;23;20024;-80
2022/01/24 03:07:34;;;;;;;22.95;16.75;;;6.30;90.90;;;;;;6190036;23;20017;-80
2022/01/24 03:10:08;;;;;;;25.63;17.55;;;6.30;90.80;;;;;;6190264;23;20025;-81
2022/01/24 03:15:06;;;;;;;20.77;17.17;;;6.30;90.90;;;;;;6190519;23;20025;-80
2022/01/24 03:17:32;;;;;;;22.13;16.90;;;6.30;90.90;;;;;;6115041;23;20017;-80
2022/01/24 03:19:57;;;;;;;24.65;17.95;;;6.30;90.90;;;;;;6189190;23;20063;-79
2022/01/24 03:22:23;;;;;;;23.27;17.67;;;6.30;90.90;;;;;;6137022;23;20049;-78
2022/01/24 03:24:49;;;;;;;22.17;17.52;;;6.30;90.90;;;;;;6163098;23;20009;-81
2022/01/24 03:27:15;;;;;;;21.80;16.70;;;6.20;90.90;;;;;;6163901;23;20021;-79
2022/01/24 03:29:41;;;;;;;23.27;17.35;;;6.30;90.90;;;;;;6140615;23;20079;-79
2022/01/24 03:32:07;;;;;;;24.45;16.75;;;6.30;90.90;;;;;;6140519;23;20025;-79
2022/01/24 03:34:33;;;;;;;22.65;16.75;;;6.30;90.90;;;;;;6191112;23;20444;-79
2022/01/24 03:36:58;;;;;;;22.42;16.33;;;6.30;91.00;;;;;;6140015;23;20021;-79
2022/01/24 03:39:24;;;;;;;23.58;17.08;;;6.30;91.00;;;;;;6164917;23;20084;-79
2022/01/24 03:41:49;;;;;;;20.38;16.08;;;6.30;90.90;;;;;;6164344;23;20056;-79
2022/01/24 03:44:18;;;;;;;20.80;15.77;;;6.30;90.90;;;;;;6164069;23;20059;-79
2022/01/24 03:47:19;;;;;;;21.90;16.55;;;6.30;90.80;;;;;;6163946;23;20099;-79
2022/01/24 03:49:52;;;;;;;19.75;14.10;;;6.30;90.80;;;;;;6141827;23;20092;-79
2022/01/24 03:52:18;;;;;;;20.48;15.20;;;6.30;90.80;;;;;;6189912;23;20021;-79
2022/01/24 03:54:44;;;;;;;24.38;16.17;;;6.30;90.80;;;;;;6164539;23;20028;-79
2022/01/24 03:57:11;;;;;;;21.80;16.05;;;6.30;90.80;;;;;;6164038;23;20368;-80
2022/01/24 03:59:37;;;;;;;22.38;16.63;;;6.30;90.80;;;;;;6140207;23;20027;-79
2022/01/24 04:02:03;;;;;;;23.42;16.17;;;6.30;90.80;;;;;;6190442;23;20088;-79
2022/01/24 04:04:29;;;;;;;22.17;15.98;;;6.30;90.80;;;;;;6190238;23;20033;-79
2022/01/24 04:06:55;;;;;;;24.23;16.00;;;6.30;90.80;;;;;;6163991;23;20452;-79
2022/01/24 04:09:20;;;;;;;22.48;17.10;;;6.30;90.80;;;;;;6163850;23;20021;-78
2022/01/24 04:11:51;;;;;;;23.77;17.30;;;6.30;90.80;;;;;;6139286;23;20025;-79
2022/01/24 04:14:29;;;;;;;22.42;16.70;;;6.30;90.80;;;;;;6140187;23;20017;-79
2022/01/24 04:17:20;;;;;;;22.73;16.35;;;6.20;90.80;;;;;;6167686;23;20025;-80
2022/01/24 04:22:31;;;;;;;23.80;17.85;;;6.20;90.90;;;;;;6190301;23;20511;-79
2022/01/24 04:25:01;;;;;;;24.17;16.90;;;6.20;90.90;;;;;;6165773;23;20089;-79
2022/01/24 04:27:28;;;;;;;23.17;17.15;;;6.20;90.90;;;;;;6164166;23;20126;-79
2022/01/24 04:29:53;;;;;;;23.80;18.02;;;6.20;90.90;;;;;;6139937;23;20024;-77
2022/01/24 04:32:20;;;;;;;26.33;18.27;;;6.20;91.00;;;;;;6190158;23;20017;-79
2022/01/24 04:34:45;;;;;;;24.23;18.20;;;6.20;91.00;;;;;;6164429;23;20027;-79
2022/01/24 04:37:11;;;;;;;25.42;18.95;;;6.20;90.90;;;;;;6139220;23;20195;-81
2022/01/24 04:39:37;;;;;;;27.90;19.63;;;6.20;90.90;;;;;;6164387;23;20021;-78
2022/01/24 04:42:18;;;;;;;29.23;20.00;;;6.20;90.90;;;;;;6164263;23;20021;-79
2022/01/24 04:44:54;;;;;;;28.77;20.88;;;6.20;90.90;;;;;;6167582;23;20460;-79
2022/01/24 04:47:28;;;;;;;32.50;22.58;;;6.20;91.00;;;;;;6166334;23;20029;-79
2022/01/24 04:55:06;;;;;;;32.95;22.73;;;6.20;91.00;;;;;;6166516;23;20025;-79
2022/01/24 04:57:32;;;;;;;33.17;21.55;;;6.20;91.00;;;;;;6192530;23;20170;-79
2022/01/24 04:59:59;;;;;;;30.58;22.02;;;6.20;91.00;;;;;;6117606;23;20021;-79
2022/01/24 05:02:25;;;;;;;35.30;23.58;;;6.20;91.00;;;;;;6141154;23;20017;-79
2022/01/24 05:04:50;;;;;;;32.85;22.65;;;6.20;91.00;;;;;;6165417;23;20023;-79
2022/01/24 05:07:16;;;;;;;32.72;22.65;;;6.20;91.00;;;;;;6165210;23;20093;-79
2022/01/24 05:12:31;;;;;;;31.58;22.20;;;6.20;91.10;;;;;;6192457;23;20021;-78
2022/01/24 05:25:54;;;;;;;31.23;21.75;;;6.20;91.20;;;;;;6192567;23;20025;-79
2022/01/24 05:28:20;;;;;;;27.55;21.83;;;6.20;91.20;;;;;;6165757;23;20013;-81
2022/01/24 05:30:45;;;;;;;33.08;22.17;;;6.20;91.20;;;;;;6166485;23;20021;-78
2022/01/24 05:33:11;;;;;;;34.13;22.55;;;6.20;91.20;;;;;;6192608;23;20071;-82
2022/01/24 05:35:37;;;;;;;38.53;25.67;;;6.20;91.30;;;;;;6142011;23;20020;-78
2022/01/24 05:38:03;;;;;;;36.72;24.67;;;6.20;91.20;;;;;;6142007;23;20017;-79
2022/01/24 05:40:30;;;;;;;35.33;25.25;;;6.20;91.20;;;;;;6165540;23;20054;-80
2022/01/24 05:42:56;;;;;;;33.60;23.50;;;6.20;91.20;;;;;;6166302;23;20024;-79
2022/01/24 05:45:21;;;;;;;37.67;24.55;;;6.20;91.20;;;;;;6165469;23;20017;-79
2022/01/24 05:47:47;;;;;;;40.58;25.98;;;6.20;91.20;;;;;;6141210;23;20032;-79
2022/01/24 05:50:13;;;;;;;37.45;25.77;;;6.10;91.20;;;;;;6141195;23;20021;-79
2022/01/24 05:52:38;;;;;;;38.60;27.92;;;6.20;91.20;;;;;;6191075;23;20181;-79
2022/01/24 05:55:05;;;;;;;44.55;28.40;;;6.10;91.20;;;;;;6165593;23;20028;-79
2022/01/24 05:57:30;;;;;;;40.25;27.83;;;6.20;91.30;;;;;;6140297;23;20447;-79
2022/01/24 05:59:56;;;;;;;43.67;28.77;;;6.20;91.20;;;;;;6191510;23;20017;-78
2022/01/24 06:02:22;;;;;;;44.05;29.73;;;6.20;91.60;;;;;;6165128;23;20036;-82
2022/01/24 06:04:48;;;;;;;45.30;31.05;;;6.10;91.30;;;;;;6164896;23;20176;-78
2022/01/24 06:07:13;;;;;;;47.50;30.73;;;6.20;91.30;;;;;;6191277;23;20021;-78
2022/01/24 06:09:39;;;;;;;47.28;31.85;;;6.10;91.30;;;;;;6191189;23;20021;-79
2022/01/24 06:12:05;;;;;;;55.35;34.63;;;6.10;91.30;;;;;;6165227;23;20044;-79
2022/01/24 06:14:31;;;;;;;53.25;34.55;;;6.10;91.30;;;;;;6140312;23;20013;-78
2022/01/24 06:16:59;;;;;;;56.85;36.53;;;6.10;91.30;;;;;;6164464;23;20072;-80
2022/01/24 06:19:25;;;;;;;56.80;35.65;;;6.20;91.30;;;;;;6164635;23;20317;-79
2022/01/24 06:21:50;;;;;;;65.55;37.95;;;6.10;91.20;;;;;;6139749;23;20033;-79
2022/01/24 06:24:16;;;;;;;66.22;40.80;;;6.10;91.20;;;;;;6164434;23;20066;-79
2022/01/24 06:26:43;;;;;;;65.38;40.55;;;6.10;91.20;;;;;;6136845;23;20059;-79
2022/01/24 06:29:10;;;;;;;65.93;41.22;;;6.20;91.20;;;;;;6137871;23;20017;-79
2022/01/24 06:31:36;;;;;;;65.68;42.42;;;6.10;91.10;;;;;;6139119;23;20148;-80
2022/01/24 06:34:02;;;;;;;69.18;44.53;;;6.10;91.20;;;;;;6164903;23;20017;-79
2022/01/24 06:36:27;;;;;;;69.22;44.30;;;6.10;91.10;;;;;;6164177;23;20096;-78
2022/01/24 06:38:56;;;;;;;79.32;46.90;;;6.10;91.00;;;;;;6190935;23;20017;-78
2022/01/24 06:41:27;;;;;;;73.95;47.05;;;6.20;91.00;;;;;;6164800;23;20025;-78
2022/01/24 06:43:55;;;;;;;71.65;46.13;;;6.10;91.00;;;;;;6191550;23;20013;-78
2022/01/24 06:46:21;;;;;;;75.63;45.17;;;6.10;91.00;;;;;;6190871;23;20024;-80
2022/01/24 06:48:47;;;;;;;71.13;45.20;;;6.10;91.00;;;;;;6164452;23;20017;-80
2022/01/24 06:51:12;;;;;;;74.03;46.88;;;6.10;91.00;;;;;;6192235;23;20017;-79
2022/01/24 06:53:38;;;;;;;68.18;45.33;;;6.20;91.10;;;;;;6190790;23;20078;-79
2022/01/24 06:56:05;;;;;;;75.57;47.50;;;6.10;91.00;;;;;;6165304;23;20048;-78
2022/01/24 06:58:31;;;;;;;75.65;47.40;;;6.10;91.00;;;;;;6164594;23;20017;-79
2022/01/24 07:00:57;;;;;;;82.53;47.97;;;6.10;91.00;;;;;;6163492;23;20104;-73
2022/01/24 07:03:23;;;;;;;79.32;48.58;;;6.10;91.00;;;;;;6111286;23;20279;-78
2022/01/24 07:05:48;;;;;;;72.20;45.60;;;6.20;91.00;;;;;;6165123;23;20017;-78
2022/01/24 07:08:14;;;;;;;78.20;47.40;;;6.20;91.00;;;;;;6140836;23;20020;-78
2022/01/24 07:10:39;;;;;;;75.72;47.78;;;6.20;91.00;;;;;;6140467;23;20120;-75
2022/01/24 07:13:05;;;;;;;79.95;47.80;;;6.20;90.90;;;;;;6164285;23;20502;-76
2022/01/24 07:15:35;;;;;;;73.53;46.88;;;6.10;90.90;;;;;;6138373;23;20474;-82
2022/01/24 07:18:56;;;;;;;72.00;47.22;;;6.20;90.90;;;;;;6188152;23;20020;-75
2022/01/24 07:20:47;;;;;;;75.15;47.50;;;6.20;90.90;;;;;;6166773;23;20025;-74
2022/01/24 07:23:13;;;;;;;76.10;48.78;;;6.20;90.90;;;;;;6136065;23;20021;-77
2022/01/24 07:25:38;;;;;;;78.82;47.17;;;6.20;90.90;;;;;;6136057;23;20440;-78
2022/01/24 07:28:04;;;;;;;77.18;49.00;;;6.20;90.90;;;;;;6187703;23;20032;-75
2022/01/24 07:30:30;;;;;;;78.95;48.50;;;6.20;90.90;;;;;;6161354;23;20013;-75
2022/01/24 07:32:55;;;;;;;78.55;48.22;;;6.20;91.00;;;;;;6161077;23;20471;-76
2022/01/24 07:35:21;;;;;;;78.72;49.60;;;6.20;90.90;;;;;;6159280;23;20071;-76
2022/01/24 07:37:47;;;;;;;76.38;48.13;;;6.20;90.90;;;;;;6159173;23;20028;-74
2022/01/24 07:40:13;;;;;;;77.05;48.70;;;6.20;90.90;;;;;;6186016;23;20040;-71
2022/01/24 07:45:25;;;;;;;85.95;51.28;;;6.20;90.90;;;;;;6189931;23;20352;-78
2022/01/24 07:47:54;;;;;;;80.00;50.03;;;6.20;90.90;;;;;;6139147;23;20020;-77
2022/01/24 07:50:24;;;;;;;80.53;51.22;;;6.20;90.90;;;;;;6165001;23;20068;-84
2022/01/24 07:52:50;;;;;;;80.80;48.78;;;6.20;90.90;;;;;;6139188;23;20101;-77
2022/01/24 07:55:16;;;;;;;85.30;50.08;;;6.20;90.90;;;;;;6140088;23;20021;-78
2022/01/24 07:57:41;;;;;;;79.25;49.90;;;6.20;90.80;;;;;;6190726;23;20024;-77
2022/01/24 08:00:10;;;;;;;82.95;49.80;;;6.20;90.90;;;;;;6140566;23;20079;-77
2022/01/24 08:02:37;;;;;;;76.90;48.05;;;6.20;90.90;;;;;;6165096;23;20021;-81
2022/01/24 08:05:03;;;;;;;77.00;47.60;;;6.20;90.90;;;;;;6190652;23;20024;-77
2022/01/24 08:07:29;;;;;;;79.32;49.42;;;6.20;90.80;;;;;;6140008;23;20653;-76
2022/01/24 08:09:55;;;;;;;82.10;50.42;;;6.20;90.80;;;;;;6162286;23;20096;-76
2022/01/24 08:12:20;;;;;;;83.18;51.47;;;6.20;90.80;;;;;;6163071;23;20025;-76
2022/01/24 08:14:46;;;;;;;83.63;50.22;;;6.20;90.80;;;;;;6188510;23;20021;-75
2022/01/24 08:17:12;;;;;;;86.18;51.70;;;6.20;90.80;;;;;;6163909;23;20388;-76
2022/01/24 08:19:37;;;;;;;76.65;48.88;;;6.20;90.80;;;;;;6164100;23;20390;-78
2022/01/24 08:22:04;;;;;;;77.50;49.90;;;6.20;90.80;;;;;;6189309;23;20518;-77
2022/01/24 08:24:30;;;;;;;76.63;48.40;;;6.20;90.70;;;;;;6165183;23;20088;-77
2022/01/24 08:26:55;;;;;;;75.72;47.92;;;6.20;90.80;;;;;;6139866;23;20017;-77
2022/01/24 08:29:21;;;;;;;74.35;47.65;;;6.30;90.70;;;;;;6166055;23;20017;-78
2022/01/24 08:31:47;;;;;;;70.60;48.22;;;6.20;90.70;;;;;;6142138;23;20099;-79
2022/01/24 08:34:12;;;;;;;75.80;49.13;;;6.20;90.70;;;;;;6141714;23;20440;-78
2022/01/24 08:36:38;;;;;;;71.10;47.08;;;6.30;90.70;;;;;;6142066;23;20017;-79
2022/01/24 08:39:07;;;;;;;68.15;45.08;;;6.30;90.70;;;;;;6141987;23;20017;-82
2022/01/24 08:41:57;;;;;;;75.68;47.30;;;6.30;90.60;;;;;;6144511;23;20053;-81
2022/01/24 08:45:42;;;;;;;74.53;46.03;;;6.30;90.60;;;;;;6124314;23;20348;-80
2022/01/24 08:47:09;;;;;;;74.55;45.88;;;6.30;90.60;;;;;;6145115;23;20100;-81
2022/01/24 08:49:35;;;;;;;75.75;46.15;;;6.30;90.60;;;;;;6117833;23;20036;-81
2022/01/24 08:52:00;;;;;;;74.70;45.33;;;6.30;90.60;;;;;;6191403;23;20100;-81
2022/01/24 08:54:29;;;;;;;69.40;44.10;;;6.30;90.60;;;;;;6194317;23;20044;-82
2022/01/24 08:56:55;;;;;;;72.10;46.33;;;6.30;90.60;;;;;;6144066;23;20032;-81
2022/01/24 08:59:22;;;;;;;72.72;47.33;;;6.30;90.50;;;;;;6167633;23;20016;-82
2022/01/24 09:01:48;;;;;;;73.38;45.35;;;6.30;90.60;;;;;;6192748;23;20021;-81
2022/01/24 09:04:14;;;;;;;73.10;46.58;;;6.30;90.60;;;;;;6120537;23;20024;-81
2022/01/24 09:06:39;;;;;;;71.05;47.50;;;6.30;90.70;;;;;;6167438;23;20013;-83
2022/01/24 09:09:05;;;;;;;73.00;45.35;;;6.30;90.70;;;;;;6142571;23;20020;-82
2022/01/24 09:11:34;;;;;;;70.40;44.05;;;6.40;90.70;;;;;;6143118;23;20031;-83
2022/01/24 09:14:00;;;;;;;72.70;46.00;;;6.40;90.70;;;;;;6143657;23;20044;-81
2022/01/24 09:16:25;;;;;;;71.13;47.83;;;6.40;90.60;;;;;;6168375;23;20024;-82
2022/01/24 09:18:51;;;;;;;73.68;45.00;;;6.40;90.60;;;;;;6143605;23;20024;-82
2022/01/24 09:21:17;;;;;;;68.43;44.28;;;6.40;90.70;;;;;;6168433;23;20029;-82
2022/01/24 09:23:43;;;;;;;68.00;43.30;;;6.40;90.60;;;;;;6194712;23;20021;-83
2022/01/24 09:26:08;;;;;;;62.50;41.15;;;6.40;90.60;;;;;;6118159;23;20044;-81
2022/01/24 09:28:34;;;;;;;68.25;42.47;;;6.40;90.60;;;;;;6193858;23;20017;-83
2022/01/24 09:30:59;;;;;;;60.55;40.58;;;6.50;90.60;;;;;;6166951;23;20021;-82
2022/01/24 09:33:26;;;;;;;66.50;42.53;;;6.40;90.50;;;;;;6117975;23;20057;-83
2022/01/24 09:35:52;;;;;;;61.58;39.92;;;6.50;90.50;;;;;;6142225;23;20075;-85
2022/01/24 09:38:20;;;;;;;68.22;41.95;;;6.50;90.50;;;;;;6168026;23;20056;-83
2022/01/24 09:40:46;;;;;;;57.17;39.55;;;6.50;90.40;;;;;;6142903;23;20075;-83
2022/01/24 09:43:12;;;;;;;60.45;39.00;;;6.40;90.40;;;;;;6166948;23;20349;-76
2022/01/24 09:45:37;;;;;;;60.85;39.30;;;6.50;90.30;;;;;;6113926;23;20439;-81
2022/01/24 09:48:03;;;;;;;58.10;37.97;;;6.50;90.30;;;;;;6163637;23;20021;-75
2022/01/24 09:50:29;;;;;;;54.50;37.50;;;6.50;90.30;;;;;;6162791;23;20093;-80
2022/01/24 09:52:55;;;;;;;55.65;36.50;;;6.50;90.20;;;;;;6139705;23;20009;-81
2022/01/24 09:55:21;;;;;;;56.08;36.63;;;6.50;90.20;;;;;;6161024;23;20021;-81
2022/01/24 09:57:48;;;;;;;55.60;37.28;;;6.50;90.20;;;;;;6165423;23;20020;-80
2022/01/24 10:00:17;;;;;;;54.55;37.70;;;6.50;90.10;;;;;;6142760;23;20299;-80
2022/01/24 10:02:43;;;;;;;53.78;35.75;;;6.50;90.10;;;;;;6116991;23;20024;-78
2022/01/24 10:05:37;;;;;;;55.20;35.80;;;6.50;90.10;;;;;;6167025;23;20017;-79
2022/01/24 10:08:11;;;;;;;50.97;35.45;;;6.60;90.00;;;;;;6121295;23;20017;-81
2022/01/24 10:10:41;;;;;;;52.78;37.55;;;6.60;90.00;;;;;;6193183;23;20064;-78
2022/01/24 10:19:09;;;;;;;53.42;37.10;;;6.60;89.70;;;;;;6145774;23;20032;-88
2022/01/24 10:21:40;;;;;;;54.25;35.40;;;6.60;89.60;;;;;;6142038;23;20088;-84
2022/01/24 10:24:06;;;;;;;51.90;35.08;;;6.60;89.60;;;;;;6142256;23;20024;-83
2022/01/24 10:26:32;;;;;;;47.97;34.25;;;6.60;89.50;;;;;;6142167;23;20017;-83
2022/01/24 10:28:58;;;;;;;52.55;35.42;;;6.60;89.40;;;;;;6141686;23;20013;-82
2022/01/24 10:31:28;;;;;;;49.63;32.90;;;6.70;89.40;;;;;;6166970;23;20025;-83
2022/01/24 10:34:16;;;;;;;45.28;33.35;;;6.70;89.30;;;;;;6167022;23;20015;-83
2022/01/24 10:36:44;;;;;;;48.95;33.53;;;6.70;89.10;;;;;;6144178;23;20097;-80
2022/01/24 10:39:44;;;;;;;43.03;32.03;;;6.70;88.90;;;;;;6117037;23;20021;-81
2022/01/24 10:45:22;;;;;;;46.47;33.92;;;6.70;88.60;;;;;;6075228;23;20061;-81
2022/01/24 10:47:50;;;;;;;47.50;33.00;;;6.70;88.50;;;;;;6100119;23;20028;-80
2022/01/24 10:50:24;;;;;;;46.90;31.98;;;6.70;88.40;;;;;;6166065;23;20024;-82
2022/01/24 10:52:51;;;;;;;46.72;32.92;;;6.80;88.40;;;;;;6165091;23;20020;-82
2022/01/24 10:55:24;;;;;;;43.38;32.70;;;6.80;88.10;;;;;;6165368;23;20029;-83
2022/01/24 10:58:09;;;;;;;41.85;32.30;;;6.80;87.90;;;;;;6163815;23;20024;-75
2022/01/24 11:00:36;;;;;;;43.50;31.55;;;6.80;87.80;;;;;;6159569;23;20028;-77
2022/01/24 11:03:06;;;;;;;44.10;32.35;;;6.80;88.10;;;;;;6160455;23;20326;-78
2022/01/24 11:05:39;;;;;;;40.03;31.20;;;6.80;88.10;;;;;;6161505;23;20017;-77
2022/01/24 11:08:26;;;;;;;39.28;30.73;;;6.90;87.90;;;;;;6140402;23;20049;-81
2022/01/24 11:10:52;;;;;;;33.88;28.65;;;6.90;87.60;;;;;;6165581;23;20053;-81
2022/01/24 11:13:19;;;;;;;36.67;30.13;;;6.90;87.70;;;;;;6165128;23;20024;-80
2022/01/24 11:15:55;;;;;;;38.80;30.63;;;6.90;87.60;;;;;;6165359;23;20068;-81
2022/01/24 11:18:22;;;;;;;42.50;32.40;;;6.90;87.50;;;;;;6142634;23;20005;-81
2022/01/24 11:20:48;;;;;;;38.10;30.75;;;6.90;87.40;;;;;;6166029;23;20024;-80
2022/01/24 11:23:20;;;;;;;38.95;31.70;;;6.90;87.30;;;;;;6140466;23;20021;-79
2022/01/24 11:25:47;;;;;;;41.75;33.63;;;6.90;87.10;;;;;;6141940;23;20065;-80
2022/01/24 11:28:13;;;;;;;43.17;33.60;;;6.90;87.00;;;;;;6165105;23;20025;-81
2022/01/24 11:31:01;;;;;;;40.88;32.60;;;6.90;86.90;;;;;;6189376;23;20013;-79
2022/01/24 11:33:34;;;;;;;38.63;31.38;;;6.90;86.50;;;;;;6161403;23;20024;-81
2022/01/24 11:36:04;;;;;;;35.85;30.30;;;6.90;86.40;;;;;;6113618;23;20017;-80
2022/01/24 11:38:35;;;;;;;38.38;30.30;;;6.90;86.30;;;;;;6164965;23;20095;-78
2022/01/24 11:41:04;;;;;;;40.72;32.42;;;6.90;86.30;;;;;;6140235;23;20028;-78
2022/01/24 11:43:34;;;;;;;39.90;32.63;;;6.90;86.30;;;;;;6139165;23;20032;-79
2022/01/24 11:46:08;;;;;;;35.97;31.77;;;6.90;86.00;;;;;;6165247;23;20092;-79
2022/01/24 11:48:36;;;;;;;38.70;31.10;;;6.90;85.80;;;;;;6142359;23;20464;-78
2022/01/24 11:51:07;;;;;;;40.03;33.70;;;6.90;85.80;;;;;;6188775;23;20063;-76
2022/01/24 11:53:34;;;;;;;37.38;32.42;;;6.90;86.00;;;;;;6135178;23;20017;-75
2022/01/24 11:56:23;;;;;;;36.53;31.48;;;6.90;85.80;;;;;;6112850;23;20021;-77
2022/01/24 11:58:49;;;;;;;34.58;29.02;;;6.90;85.40;;;;;;6117669;23;20454;-78
2022/01/24 12:01:38;;;;;;;34.80;30.33;;;6.90;85.80;;;;;;6165617;23;20017;-80
2022/01/24 12:04:04;;;;;;;36.92;30.25;;;6.80;85.60;;;;;;6143114;23;20380;-82
2022/01/24 12:06:29;;;;;;;35.55;29.20;;;6.80;85.70;;;;;;6116042;23;20048;-84
2022/01/24 12:09:03;;;;;;;35.28;31.10;;;6.90;85.70;;;;;;6166223;23;20013;-81
2022/01/24 12:11:35;;;;;;;35.70;30.35;;;6.80;85.70;;;;;;6140747;23;20289;-83
2022/01/24 12:14:13;;;;;;;33.88;30.23;;;6.90;85.90;;;;;;6141347;23;20140;-80
2022/01/24 12:16:41;;;;;;;32.85;28.02;;;6.80;85.90;;;;;;6141720;23;20148;-79
2022/01/24 12:19:07;;;;;;;33.50;27.83;;;6.90;85.80;;;;;;6140852;23;20028;-80
2022/01/24 12:21:34;;;;;;;29.52;25.25;;;6.90;85.50;;;;;;6165407;23;20327;-83
2022/01/24 12:24:05;;;;;;;32.95;27.77;;;6.90;85.30;;;;;;6141874;23;20017;-86
2022/01/24 12:26:37;;;;;;;30.52;26.33;;;6.80;85.10;;;;;;6166093;23;20013;-81
2022/01/24 12:29:14;;;;;;;30.90;26.50;;;6.90;85.30;;;;;;6142950;23;20017;-81
2022/01/24 12:31:46;;;;;;;31.88;27.25;;;6.90;85.30;;;;;;6140700;23;20016;-80
2022/01/24 12:34:19;;;;;;;32.10;28.08;;;6.80;85.30;;;;;;6140365;23;20015;-84
2022/01/24 12:36:50;;;;;;;31.85;27.45;;;6.90;85.30;;;;;;6191210;23;20079;-79
2022/01/24 12:39:23;;;;;;;32.58;28.15;;;6.90;85.30;;;;;;6140824;23;20069;-79
2022/01/24 12:41:58;;;;;;;34.30;27.83;;;6.90;85.10;;;;;;6164769;23;20068;-80
2022/01/24 12:47:18;;;;;;;33.00;26.33;;;6.90;85.10;;;;;;6191138;23;20025;-81
2022/01/24 12:49:44;;;;;;;29.80;26.38;;;6.90;85.10;;;;;;6164983;23;20039;-80
2022/01/24 12:52:15;;;;;;;31.75;27.27;;;6.90;85.10;;;;;;6164753;23;20017;-80
2022/01/24 12:54:46;;;;;;;31.33;26.33;;;6.90;85.10;;;;;;6138427;23;20060;-78
2022/01/24 12:57:14;;;;;;;26.92;23.73;;;6.90;85.10;;;;;;6139696;23;20021;-85
2022/01/24 12:59:41;;;;;;;27.95;24.77;;;6.90;84.90;;;;;;6138975;23;20017;-83
2022/01/24 13:02:08;;;;;;;30.08;26.63;;;6.90;84.90;;;;;;6141605;23;20048;-80
2022/01/24 13:04:38;;;;;;;28.42;25.17;;;6.90;84.80;;;;;;6165042;23;20056;-81
2022/01/24 13:07:05;;;;;;;31.98;26.00;;;6.90;84.80;;;;;;6140869;23;20021;-78
2022/01/24 13:09:31;;;;;;;30.60;26.60;;;6.90;84.80;;;;;;6139371;23;20091;-80
2022/01/24 13:12:00;;;;;;;32.85;26.42;;;6.90;84.80;;;;;;6115978;23;20072;-79
2022/01/24 13:14:36;;;;;;;32.40;27.20;;;6.90;84.80;;;;;;6139517;23;20024;-78
2022/01/24 13:22:42;;;;;;;33.33;27.83;;;6.80;84.80;;;;;;6192223;23;20032;-77
2022/01/24 13:25:13;;;;;;;30.92;26.90;;;6.80;84.80;;;;;;6143172;23;20056;-83
2022/01/24 13:27:44;;;;;;;33.20;26.58;;;6.80;84.90;;;;;;6116935;23;20184;-80
2022/01/24 13:30:16;;;;;;;33.17;27.88;;;6.80;84.70;;;;;;6166783;23;20021;-76
2022/01/24 13:32:52;;;;;;;32.33;26.98;;;6.80;84.60;;;;;;6164799;23;20009;-77
2022/01/24 13:35:27;;;;;;;33.85;28.33;;;6.80;84.60;;;;;;6143583;23;20016;-79
2022/01/24 13:37:57;;;;;;;32.53;27.15;;;6.80;84.80;;;;;;6142929;23;20017;-79
2022/01/24 13:40:57;;;;;;;37.13;28.85;;;6.80;84.90;;;;;;6140769;23;20063;-80
2022/01/24 13:43:33;;;;;;;33.33;27.48;;;6.80;84.50;;;;;;6189278;23;20017;-78
2022/01/24 13:46:02;;;;;;;33.85;29.17;;;6.80;84.80;;;;;;6164634;23;20028;-75
2022/01/24 13:48:28;;;;;;;36.88;30.05;;;6.80;84.90;;;;;;6164668;23;20023;-77
2022/01/24 13:50:56;;;;;;;36.28;29.80;;;6.80;85.00;;;;;;6165995;23;20048;-76
2022/01/24 13:53:41;;;;;;;40.00;30.73;;;6.70;85.00;;;;;;6116617;23;20021;-86
2022/01/24 13:56:21;;;;;;;36.97;30.55;;;6.70;84.80;;;;;;6193295;23;20024;-78
2022/01/24 13:59:18;;;;;;;38.22;30.27;;;6.70;84.80;;;;;;6166714;23;20021;-82
2022/01/24 14:01:57;;;;;;;24.92;18.55;;;6.70;84.90;;;;;;6165133;23;20020;-76
2022/01/24 14:04:29;;;;;;;36.67;28.63;;;7.20;89.30;;;;;;6166149;23;20021;-82
2022/01/24 14:07:05;;;;;;;37.50;29.70;;;7.20;86.50;;;;;;6142330;23;20085;-79
2022/01/24 14:09:40;;;;;;;37.05;29.63;;;7.20;85.20;;;;;;6142166;23;20021;-79
2022/01/24 14:12:08;;;;;;;36.67;29.17;;;7.20;84.70;;;;;;6192584;23;20031;-77
2022/01/24 14:14:45;;;;;;;37.53;29.40;;;7.10;84.60;;;;;;6116754;23;20088;-78
2022/01/24 14:19:38;;;;;;;35.28;28.15;;;7.00;84.60;;;;;;6166522;23;20025;-78
2022/01/24 14:22:11;;;;;;;37.63;28.95;;;6.90;84.60;;;;;;6141121;23;20075;-77
2022/01/24 14:24:46;;;;;;;38.72;29.42;;;6.90;84.80;;;;;;6116914;23;20027;-79
2022/01/24 14:27:13;;;;;;;41.53;30.60;;;6.80;84.80;;;;;;6164761;23;20017;-82
2022/01/24 14:29:39;;;;;;;43.58;32.10;;;6.80;85.00;;;;;;6165580;23;20017;-78
2022/01/24 14:32:13;;;;;;;41.50;30.73;;;6.80;85.10;;;;;;6190790;23;20021;-77
2022/01/24 14:34:38;;;;;;;40.08;30.58;;;6.70;84.90;;;;;;6165857;23;20495;-75
2022/01/24 14:37:05;;;;;;;40.67;31.52;;;6.70;84.90;;;;;;6115711;23;20036;-76
2022/01/24 14:39:30;;;;;;;38.10;31.10;;;6.70;85.00;;;;;;6141115;23;20021;-83
2022/01/24 14:41:57;;;;;;;37.50;29.73;;;6.70;84.90;;;;;;6142059;23;20051;-76
2022/01/24 14:47:07;;;;;;;40.20;31.73;;;6.60;84.90;;;;;;6193823;23;20028;-75